Time,TemperatureF,DewpointF,PressureIn,WindDirection,WindDirectionDegrees,WindSpeedMPH,WindSpeedGustMPH,Humidity,HourlyPrecipIn,Conditions,Clouds,dailyrainin,SoftwareType,DateUTC
2013-02-03 00:03:00,55.3,50.9,30.14,NNW,329,1.0,-999.0,85,-99.99,,,0.00,raj,2013-02-03 08:03:00,
2013-02-03 00:09:00,55.2,50.5,30.15,WSW,237,2.0,-999.0,84,-99.99,,,0.00,raj,2013-02-03 08:09:00,
2013-02-03 00:14:00,55.2,50.1,30.14,NNE,20,0.0,-999.0,83,-99.99,,,0.00,raj,2013-02-03 08:14:00,
2013-02-03 00:19:00,55.1,50.4,30.14,NNE,20,0.0,-999.0,84,-99.99,,,0.00,raj,2013-02-03 08:19:00,
2013-02-03 00:25:00,54.6,50.2,30.14,SSW,207,1.0,-999.0,85,-99.99,,,0.00,raj,2013-02-03 08:25:00,
2013-02-03 00:30:00,54.2,49.8,30.14,NNE,25,0.0,-999.0,85,-99.99,,,0.00,raj,2013-02-03 08:30:00,
2013-02-03 00:35:00,53.8,49.7,30.13,WNW,297,1.0,-999.0,86,-99.99,,,0.00,raj,2013-02-03 08:35:00,
2013-02-03 00:40:00,53.3,49.2,30.13,WNW,297,0.0,-999.0,86,-99.99,,,0.00,raj,2013-02-03 08:40:00,
2013-02-03 00:46:00,52.7,48.6,30.13,WNW,297,1.0,-999.0,86,-99.99,,,0.00,raj,2013-02-03 08:46:00,
2013-02-03 00:51:00,52.3,48.8,30.13,WNW,297,0.0,-999.0,88,-99.99,,,0.00,raj,2013-02-03 08:51:00,
2013-02-03 00:56:00,52.0,48.2,30.13,WNW,297,0.0,-999.0,87,-99.99,,,0.00,raj,2013-02-03 08:56:00,
2013-02-03 01:01:00,51.7,48.3,30.13,WNW,297,0.0,-999.0,88,-99.99,,,0.00,raj,2013-02-03 09:01:00,
2013-02-03 01:07:00,51.6,48.2,30.13,WNW,297,0.0,-999.0,88,-99.99,,,0.00,raj,2013-02-03 09:07:00,
2013-02-03 01:12:00,51.9,48.8,30.13,WNW,292,0.0,-999.0,89,-99.99,,,0.00,raj,2013-02-03 09:12:00,
2013-02-03 01:17:00,52.3,49.5,30.13,WNW,292,0.0,-999.0,90,-99.99,,,0.00,raj,2013-02-03 09:17:00,
2013-02-03 01:23:00,52.7,50.2,30.13,SW,228,0.0,-999.0,91,-99.99,,,0.00,raj,2013-02-03 09:23:00,
2013-02-03 01:28:00,52.8,50.2,30.13,SW,228,0.0,-999.0,91,-99.99,,,0.00,raj,2013-02-03 09:28:00,
2013-02-03 01:33:00,52.8,50.5,30.13,SW,228,0.0,-999.0,92,-99.99,,,0.00,raj,2013-02-03 09:33:00,
2013-02-03 01:38:00,52.7,50.4,30.13,SW,228,0.0,-999.0,92,-99.99,,,0.00,raj,2013-02-03 09:38:00,
2013-02-03 01:44:00,52.6,50.6,30.13,SW,228,0.0,-999.0,93,-99.99,,,0.00,raj,2013-02-03 09:44:00,
2013-02-03 01:49:00,52.3,50.3,30.12,SW,228,0.0,-999.0,93,-99.99,,,0.00,raj,2013-02-03 09:49:00,
2013-02-03 01:54:00,52.2,50.5,30.13,SW,228,0.0,-999.0,94,-99.99,,,0.00,raj,2013-02-03 09:54:00,
2013-02-03 01:59:00,52.0,50.0,30.13,SW,228,0.0,-999.0,93,-99.99,,,0.00,raj,2013-02-03 09:59:00,
2013-02-03 02:05:00,51.9,50.5,30.12,SW,228,0.0,-999.0,95,-99.99,,,0.00,raj,2013-02-03 10:05:00,
2013-02-03 02:10:00,51.7,50.0,30.13,SW,228,0.0,-999.0,94,-99.99,,,0.00,raj,2013-02-03 10:10:00,
2013-02-03 02:15:00,51.5,49.8,30.13,SW,228,0.0,-999.0,94,-99.99,,,0.00,raj,2013-02-03 10:15:00,
2013-02-03 02:21:00,51.3,49.6,30.13,SW,228,0.0,-999.0,94,-99.99,,,0.00,raj,2013-02-03 10:21:00,
2013-02-03 02:26:00,51.0,49.6,30.12,North,355,0.0,-999.0,95,-99.99,,,0.00,raj,2013-02-03 10:26:00,
2013-02-03 02:31:00,50.7,49.0,30.12,North,355,0.0,-999.0,94,-99.99,,,0.00,raj,2013-02-03 10:31:00,
2013-02-03 02:36:00,50.3,48.6,30.12,North,355,0.0,-999.0,94,-99.99,,,0.00,raj,2013-02-03 10:36:00,
2013-02-03 02:42:00,50.0,48.3,30.12,NNW,342,0.0,-999.0,94,-99.99,,,0.00,raj,2013-02-03 10:42:00,
2013-02-03 02:47:00,49.6,48.0,30.12,NNW,342,0.0,-999.0,94,-99.99,,,0.00,raj,2013-02-03 10:47:00,
2013-02-03 02:52:00,49.4,48.0,30.12,NNW,342,0.0,-999.0,95,-99.99,,,0.00,raj,2013-02-03 10:52:00,
2013-02-03 02:57:00,49.4,48.0,30.13,NNW,342,0.0,-999.0,95,-99.99,,,0.00,raj,2013-02-03 10:57:00,
2013-02-03 03:03:00,49.2,47.8,30.12,NNW,342,0.0,-999.0,95,-99.99,,,0.00,raj,2013-02-03 11:03:00,
2013-02-03 03:08:00,49.1,47.7,30.12,NNW,342,0.0,-999.0,95,-99.99,,,0.00,raj,2013-02-03 11:08:00,
2013-02-03 03:13:00,49.1,48.0,30.12,NNW,342,0.0,-999.0,96,-99.99,,,0.00,raj,2013-02-03 11:13:00,
2013-02-03 03:18:00,48.9,47.5,30.12,NNW,342,0.0,-999.0,95,-99.99,,,0.00,raj,2013-02-03 11:18:00,
2013-02-03 03:24:00,48.9,47.8,30.12,NNW,342,0.0,-999.0,96,-99.99,,,0.00,raj,2013-02-03 11:24:00,
2013-02-03 03:29:00,48.7,47.3,30.12,NNW,342,0.0,-999.0,95,-99.99,,,0.00,raj,2013-02-03 11:29:00,
2013-02-03 03:34:00,48.5,47.1,30.11,NNW,342,0.0,-999.0,95,-99.99,,,0.00,raj,2013-02-03 11:34:00,
2013-02-03 03:40:00,48.6,47.5,30.11,NNW,342,0.0,-999.0,96,-99.99,,,0.00,raj,2013-02-03 11:40:00,
2013-02-03 03:45:00,48.5,47.4,30.11,NNW,342,0.0,-999.0,96,-99.99,,,0.00,raj,2013-02-03 11:45:00,
2013-02-03 03:51:00,48.5,47.4,30.11,NNW,342,0.0,-999.0,96,-99.99,,,0.00,raj,2013-02-03 11:51:00,
2013-02-03 03:56:00,48.3,47.2,30.11,NNW,342,0.0,-999.0,96,-99.99,,,0.00,raj,2013-02-03 11:56:00,
2013-02-03 04:01:00,48.3,47.2,30.11,NNW,342,0.0,-999.0,96,-99.99,,,0.00,raj,2013-02-03 12:01:00,
2013-02-03 04:07:00,48.1,46.7,30.11,NNW,342,0.0,-999.0,95,-99.99,,,0.00,raj,2013-02-03 12:07:00,
2013-02-03 04:12:00,48.2,47.1,30.11,NNW,342,0.0,-999.0,96,-99.99,,,0.00,raj,2013-02-03 12:12:00,
2013-02-03 04:17:00,48.1,46.7,30.11,NNW,342,1.0,-999.0,95,-99.99,,,0.00,raj,2013-02-03 12:17:00,
2013-02-03 04:22:00,48.3,46.9,30.10,NNW,342,0.0,-999.0,95,-99.99,,,0.00,raj,2013-02-03 12:22:00,
2013-02-03 04:28:00,48.4,47.3,30.11,NNW,342,0.0,-999.0,96,-99.99,,,0.00,raj,2013-02-03 12:28:00,
2013-02-03 04:33:00,49.2,48.7,30.10,NE,34,0.0,-999.0,98,-99.99,,,0.00,raj,2013-02-03 12:33:00,
2013-02-03 04:38:00,50.3,49.5,30.10,NE,34,0.0,-999.0,97,-99.99,,,0.00,raj,2013-02-03 12:38:00,
2013-02-03 04:44:00,50.6,49.5,30.10,NE,34,0.0,-999.0,96,-99.99,,,0.00,raj,2013-02-03 12:44:00,
2013-02-03 04:49:00,51.0,50.2,30.10,NE,34,0.0,-999.0,97,-99.99,,,0.00,raj,2013-02-03 12:49:00,
2013-02-03 04:54:00,51.2,50.1,30.10,NE,34,0.0,-999.0,96,-99.99,,,0.00,raj,2013-02-03 12:54:00,
2013-02-03 04:59:00,51.4,50.6,30.10,NE,34,0.0,-999.0,97,-99.99,,,0.00,raj,2013-02-03 12:59:00,
2013-02-03 05:05:00,51.5,50.4,30.10,NE,34,0.0,-999.0,96,-99.99,,,0.00,raj,2013-02-03 13:05:00,
2013-02-03 05:10:00,51.5,50.4,30.09,NE,34,0.0,-999.0,96,-99.99,,,0.00,raj,2013-02-03 13:10:00,
2013-02-03 05:15:00,51.4,50.0,30.09,NE,34,0.0,-999.0,95,-99.99,,,0.00,raj,2013-02-03 13:15:00,
2013-02-03 05:21:00,51.2,49.8,30.10,NE,34,0.0,-999.0,95,-99.99,,,0.00,raj,2013-02-03 13:21:00,
2013-02-03 05:26:00,51.0,49.6,30.10,NE,34,1.0,-999.0,95,-99.99,,,0.00,raj,2013-02-03 13:26:00,
2013-02-03 05:31:00,51.0,49.6,30.10,NE,34,0.0,-999.0,95,-99.99,,,0.00,raj,2013-02-03 13:31:00,
2013-02-03 05:36:00,50.9,49.2,30.10,North,360,0.0,-999.0,94,-99.99,,,0.00,raj,2013-02-03 13:36:00,
2013-02-03 05:42:00,50.7,48.8,30.10,North,360,1.0,-999.0,93,-99.99,,,0.00,raj,2013-02-03 13:42:00,
2013-02-03 05:47:00,50.7,48.8,30.10,North,360,0.0,-999.0,93,-99.99,,,0.00,raj,2013-02-03 13:47:00,
2013-02-03 05:52:00,50.5,48.3,30.09,North,360,0.0,-999.0,92,-99.99,,,0.00,raj,2013-02-03 13:52:00,
2013-02-03 05:57:00,50.1,47.9,30.10,North,360,0.0,-999.0,92,-99.99,,,0.00,raj,2013-02-03 13:57:00,
2013-02-03 06:02:00,49.9,48.0,30.10,WSW,251,1.0,-999.0,93,-99.99,,,0.00,raj,2013-02-03 14:02:00,
2013-02-03 06:08:00,49.6,47.7,30.10,WSW,251,0.0,-999.0,93,-99.99,,,0.00,raj,2013-02-03 14:08:00,
2013-02-03 06:13:00,49.2,47.3,30.10,WSW,251,0.0,-999.0,93,-99.99,,,0.00,raj,2013-02-03 14:13:00,
2013-02-03 06:18:00,48.9,47.0,30.11,WSW,251,0.0,-999.0,93,-99.99,,,0.00,raj,2013-02-03 14:18:00,
2013-02-03 06:23:00,48.4,46.5,30.11,WSW,251,0.0,-999.0,93,-99.99,,,0.00,raj,2013-02-03 14:23:00,
2013-02-03 06:29:00,48.1,46.5,30.11,WSW,251,1.0,-999.0,94,-99.99,,,0.00,raj,2013-02-03 14:29:00,
2013-02-03 06:34:00,47.7,46.1,30.11,WSW,251,0.0,-999.0,94,-99.99,,,0.00,raj,2013-02-03 14:34:00,
2013-02-03 06:39:00,47.7,46.3,30.11,WSW,251,0.0,-999.0,95,-99.99,,,0.00,raj,2013-02-03 14:39:00,
2013-02-03 06:45:00,47.6,46.5,30.11,WSW,251,1.0,-999.0,96,-99.99,,,0.00,raj,2013-02-03 14:45:00,
2013-02-03 06:50:00,47.9,47.1,30.11,WSW,251,0.0,-999.0,97,-99.99,,,0.00,raj,2013-02-03 14:50:00,
2013-02-03 06:55:00,48.1,47.3,30.11,WSW,251,0.0,-999.0,97,-99.99,,,0.00,raj,2013-02-03 14:55:00,
2013-02-03 07:00:00,48.1,47.0,30.11,WSW,251,0.0,-999.0,96,-99.99,,,0.00,raj,2013-02-03 15:00:00,
2013-02-03 07:06:00,47.8,46.7,30.11,WSW,251,0.0,-999.0,96,-99.99,,,0.00,raj,2013-02-03 15:06:00,
2013-02-03 07:11:00,48.6,48.1,30.11,NNE,13,0.0,-999.0,98,-99.99,,,0.00,raj,2013-02-03 15:11:00,
2013-02-03 07:16:00,49.8,49.3,30.11,NNE,13,0.0,-999.0,98,-99.99,,,0.00,raj,2013-02-03 15:16:00,
2013-02-03 07:22:00,50.4,50.1,30.11,NNE,13,0.0,-999.0,99,-99.99,,,0.00,raj,2013-02-03 15:22:00,
2013-02-03 07:27:00,50.8,50.5,30.11,NNE,13,2.0,-999.0,99,-99.99,,,0.00,raj,2013-02-03 15:27:00,
2013-02-03 07:32:00,50.9,50.4,30.11,NNE,32,2.0,-999.0,98,-99.99,,,0.00,raj,2013-02-03 15:32:00,
2013-02-03 07:37:00,51.6,51.0,30.11,East,98,1.0,-999.0,98,-99.99,,,0.00,raj,2013-02-03 15:37:00,
2013-02-03 07:43:00,52.0,51.5,30.11,NNE,21,3.0,-999.0,98,-99.99,,,0.00,raj,2013-02-03 15:43:00,
2013-02-03 07:48:00,52.7,51.9,30.11,NE,36,4.0,-999.0,97,-99.99,,,0.00,raj,2013-02-03 15:48:00,
2013-02-03 07:53:00,53.8,52.1,30.11,NE,51,1.0,-999.0,94,-99.99,,,0.00,raj,2013-02-03 15:53:00,
2013-02-03 07:58:00,54.6,51.4,30.10,NE,36,4.0,-999.0,89,-99.99,,,0.00,raj,2013-02-03 15:58:00,
2013-02-03 08:04:00,55.5,51.4,30.11,NNE,24,0.0,-999.0,86,-99.99,,,0.00,raj,2013-02-03 16:04:00,
2013-02-03 08:09:00,55.9,52.1,30.11,NW,318,0.0,-999.0,87,-99.99,,,0.00,raj,2013-02-03 16:09:00,
2013-02-03 08:14:00,56.1,52.3,30.11,SW,224,1.0,-999.0,87,-99.99,,,0.00,raj,2013-02-03 16:14:00,
2013-02-03 08:20:00,56.2,52.7,30.11,SW,224,0.0,-999.0,88,-99.99,,,0.00,raj,2013-02-03 16:20:00,
2013-02-03 08:25:00,56.4,52.6,30.11,SW,224,0.0,-999.0,87,-99.99,,,0.00,raj,2013-02-03 16:25:00,
2013-02-03 08:30:00,56.8,53.0,30.11,SW,224,0.0,-999.0,87,-99.99,,,0.00,raj,2013-02-03 16:30:00,
2013-02-03 08:35:00,57.6,52.8,30.11,SSW,203,3.0,-999.0,84,-99.99,,,0.00,raj,2013-02-03 16:35:00,
2013-02-03 08:41:00,58.3,53.2,30.11,SSW,203,1.0,-999.0,83,-99.99,,,0.00,raj,2013-02-03 16:41:00,
2013-02-03 08:46:00,58.8,53.0,30.11,SSW,203,2.0,-999.0,81,-99.99,,,0.00,raj,2013-02-03 16:46:00,
2013-02-03 08:51:00,59.1,53.3,30.12,SW,232,2.0,-999.0,81,-99.99,,,0.00,raj,2013-02-03 16:51:00,
2013-02-03 08:56:00,59.2,54.0,30.12,WSW,247,0.0,-999.0,83,-99.99,,,0.00,raj,2013-02-03 16:56:00,
2013-02-03 09:02:00,59.8,54.6,30.12,West,263,1.0,-999.0,83,-99.99,,,0.00,raj,2013-02-03 17:02:00,
2013-02-03 09:07:00,60.7,54.2,30.12,West,263,0.0,-999.0,79,-99.99,,,0.00,raj,2013-02-03 17:07:00,
2013-02-03 09:12:00,61.6,55.0,30.12,West,263,0.0,-999.0,79,-99.99,,,0.00,raj,2013-02-03 17:12:00,
2013-02-03 09:18:00,62.6,54.9,30.12,West,263,0.0,-999.0,76,-99.99,,,0.00,raj,2013-02-03 17:18:00,
2013-02-03 09:23:00,63.5,54.7,30.12,WSW,255,0.0,-999.0,73,-99.99,,,0.00,raj,2013-02-03 17:23:00,
2013-02-03 09:28:00,64.8,56.3,30.12,WSW,255,0.0,-999.0,74,-99.99,,,0.00,raj,2013-02-03 17:28:00,
2013-02-03 09:33:00,64.7,54.7,30.12,SSW,209,2.0,-999.0,70,-99.99,,,0.00,raj,2013-02-03 17:33:00,
2013-02-03 09:39:00,64.7,55.1,30.12,SSW,209,1.0,-999.0,71,-99.99,,,0.00,raj,2013-02-03 17:39:00,
2013-02-03 09:44:00,65.0,55.0,30.12,SSW,211,0.0,-999.0,70,-99.99,,,0.00,raj,2013-02-03 17:44:00,
2013-02-03 09:49:00,65.3,54.5,30.12,South,191,3.0,-999.0,68,-99.99,,,0.00,raj,2013-02-03 17:49:00,
2013-02-03 09:55:00,65.4,54.6,30.12,SW,217,2.0,-999.0,68,-99.99,,,0.00,raj,2013-02-03 17:55:00,
2013-02-03 10:00:00,65.0,53.8,30.12,SW,228,0.0,-999.0,67,-99.99,,,0.00,raj,2013-02-03 18:00:00,
2013-02-03 10:05:00,64.9,54.5,30.12,SW,217,2.0,-999.0,69,-99.99,,,0.00,raj,2013-02-03 18:05:00,
2013-02-03 10:10:00,64.8,52.3,30.12,South,188,1.0,-999.0,64,-99.99,,,0.00,raj,2013-02-03 18:10:00,
2013-02-03 10:16:00,64.9,50.7,30.12,WSW,240,0.0,-999.0,60,-99.99,,,0.00,raj,2013-02-03 18:16:00,
2013-02-03 10:21:00,65.3,52.0,30.12,WSW,240,0.0,-999.0,62,-99.99,,,0.00,raj,2013-02-03 18:21:00,
2013-02-03 10:26:00,65.5,53.4,30.12,SSW,209,0.0,-999.0,65,-99.99,,,0.00,raj,2013-02-03 18:26:00,
2013-02-03 10:31:00,65.2,54.8,30.12,SW,228,1.0,-999.0,69,-99.99,,,0.00,raj,2013-02-03 18:31:00,
2013-02-03 10:37:00,64.5,56.0,30.12,SSW,195,1.0,-999.0,74,-99.99,,,0.00,raj,2013-02-03 18:37:00,
2013-02-03 10:42:00,64.6,56.1,30.12,SW,232,2.0,-999.0,74,-99.99,,,0.00,raj,2013-02-03 18:42:00,
2013-02-03 10:47:00,64.4,55.6,30.12,South,188,0.0,-999.0,73,-99.99,,,0.00,raj,2013-02-03 18:47:00,
2013-02-03 10:53:00,63.9,55.5,30.12,SW,229,1.0,-999.0,74,-99.99,,,0.00,raj,2013-02-03 18:53:00,
2013-02-03 10:58:00,63.2,55.2,30.11,SSW,205,0.0,-999.0,75,-99.99,,,0.00,raj,2013-02-03 18:58:00,
2013-02-03 11:03:00,63.2,54.8,30.11,SSW,205,3.0,-999.0,74,-99.99,,,0.00,raj,2013-02-03 19:03:00,
2013-02-03 11:08:00,63.3,55.6,30.10,SSW,204,2.0,-999.0,76,-99.99,,,0.00,raj,2013-02-03 19:08:00,
2013-02-03 11:13:00,63.8,55.0,30.10,SSE,161,3.0,-999.0,73,-99.99,,,0.00,raj,2013-02-03 19:13:00,
2013-02-03 11:19:00,63.6,55.2,30.10,SSW,195,2.0,-999.0,74,-99.99,,,0.00,raj,2013-02-03 19:19:00,
2013-02-03 11:24:00,63.2,54.4,30.09,South,190,0.0,-999.0,73,-99.99,,,0.00,raj,2013-02-03 19:24:00,
2013-02-03 11:29:00,63.1,54.7,30.09,SW,222,0.0,-999.0,74,-99.99,,,0.00,raj,2013-02-03 19:29:00,
2013-02-03 11:35:00,62.8,55.1,30.09,SW,223,0.0,-999.0,76,-99.99,,,0.00,raj,2013-02-03 19:35:00,
2013-02-03 11:40:00,61.9,54.6,30.09,SSW,207,1.0,-999.0,77,-99.99,,,0.00,raj,2013-02-03 19:40:00,
2013-02-03 11:45:00,61.0,55.1,30.09,SSW,209,3.0,-999.0,81,-99.99,,,0.00,raj,2013-02-03 19:45:00,
2013-02-03 11:51:00,60.3,54.8,30.09,SW,214,4.0,-999.0,82,-99.99,,,0.00,raj,2013-02-03 19:51:00,
2013-02-03 11:56:00,60.2,54.7,30.08,SSW,206,1.0,-999.0,82,-99.99,,,0.00,raj,2013-02-03 19:56:00,
2013-02-03 12:01:00,60.2,55.3,30.08,SW,235,3.0,-999.0,84,-99.99,,,0.00,raj,2013-02-03 20:01:00,
2013-02-03 12:06:00,60.4,54.2,30.08,WSW,246,1.0,-999.0,80,-99.99,,,0.00,raj,2013-02-03 20:06:00,
2013-02-03 12:12:00,61.0,54.8,30.08,South,186,1.0,-999.0,80,-99.99,,,0.00,raj,2013-02-03 20:12:00,
2013-02-03 12:17:00,61.6,54.7,30.07,South,187,1.0,-999.0,78,-99.99,,,0.00,raj,2013-02-03 20:17:00,
2013-02-03 12:22:00,62.5,55.2,30.07,SW,218,0.0,-999.0,77,-99.99,,,0.00,raj,2013-02-03 20:22:00,
2013-02-03 12:27:00,63.1,54.3,30.07,SSW,211,3.0,-999.0,73,-99.99,,,0.00,raj,2013-02-03 20:27:00,
2013-02-03 12:33:00,63.8,54.6,30.06,SSW,202,2.0,-999.0,72,-99.99,,,0.00,raj,2013-02-03 20:33:00,
2013-02-03 12:38:00,64.0,54.0,30.06,SSW,207,2.0,-999.0,70,-99.99,,,0.00,raj,2013-02-03 20:38:00,
2013-02-03 12:43:00,64.6,53.8,30.05,West,276,1.0,-999.0,68,-99.99,,,0.00,raj,2013-02-03 20:43:00,
2013-02-03 12:48:00,65.5,50.3,30.05,SSW,206,1.0,-999.0,58,-99.99,,,0.00,raj,2013-02-03 20:48:00,
2013-02-03 12:54:00,65.9,51.2,30.05,SSW,202,3.0,-999.0,59,-99.99,,,0.00,raj,2013-02-03 20:54:00,
2013-02-03 12:59:00,66.4,49.3,30.05,SW,217,0.0,-999.0,54,-99.99,,,0.00,raj,2013-02-03 20:59:00,
2013-02-03 13:04:00,66.7,49.5,30.04,SW,221,0.0,-999.0,54,-99.99,,,0.00,raj,2013-02-03 21:04:00,
2013-02-03 13:10:00,67.0,50.3,30.04,SSW,202,1.0,-999.0,55,-99.99,,,0.00,raj,2013-02-03 21:10:00,
2013-02-03 13:15:00,67.1,51.4,30.04,SSW,208,2.0,-999.0,57,-99.99,,,0.00,raj,2013-02-03 21:15:00,
2013-02-03 13:20:00,66.0,55.2,30.04,SW,220,0.0,-999.0,68,-99.99,,,0.00,raj,2013-02-03 21:20:00,
2013-02-03 13:26:00,65.5,53.8,30.03,SSW,198,1.0,-999.0,66,-99.99,,,0.00,raj,2013-02-03 21:26:00,
2013-02-03 13:31:00,65.4,54.6,30.04,SW,223,2.0,-999.0,68,-99.99,,,0.00,raj,2013-02-03 21:31:00,
2013-02-03 13:36:00,64.7,53.9,30.04,South,184,0.0,-999.0,68,-99.99,,,0.00,raj,2013-02-03 21:36:00,
2013-02-03 13:41:00,64.3,53.9,30.03,WSW,237,4.0,-999.0,69,-99.99,,,0.00,raj,2013-02-03 21:41:00,
2013-02-03 13:47:00,64.2,55.0,30.03,SW,222,3.0,-999.0,72,-99.99,,,0.00,raj,2013-02-03 21:47:00,
2013-02-03 13:52:00,63.5,55.1,30.03,SSW,211,4.0,-999.0,74,-99.99,,,0.00,raj,2013-02-03 21:52:00,
2013-02-03 13:57:00,62.7,55.4,30.03,South,183,2.0,-999.0,77,-99.99,,,0.00,raj,2013-02-03 21:57:00,
2013-02-03 14:03:00,62.9,54.5,30.03,South,178,1.0,-999.0,74,-99.99,,,0.00,raj,2013-02-03 22:03:00,
2013-02-03 14:08:00,63.2,54.0,30.02,South,184,2.0,-999.0,72,-99.99,,,0.00,raj,2013-02-03 22:08:00,
2013-02-03 14:13:00,63.7,54.9,30.03,SSW,211,2.0,-999.0,73,-99.99,,,0.00,raj,2013-02-03 22:13:00,
2013-02-03 14:19:00,64.2,53.4,30.02,SSW,201,1.0,-999.0,68,-99.99,,,0.00,raj,2013-02-03 22:19:00,
2013-02-03 14:24:00,64.7,51.8,30.02,SSW,207,2.0,-999.0,63,-99.99,,,0.00,raj,2013-02-03 22:24:00,
2013-02-03 14:29:00,65.3,53.2,30.02,WSW,254,0.0,-999.0,65,-99.99,,,0.00,raj,2013-02-03 22:29:00,
2013-02-03 14:34:00,66.0,53.1,30.02,SW,222,1.0,-999.0,63,-99.99,,,0.00,raj,2013-02-03 22:34:00,
2013-02-03 14:39:00,66.4,52.6,30.02,WNW,303,0.0,-999.0,61,-99.99,,,0.00,raj,2013-02-03 22:39:00,
2013-02-03 14:45:00,66.7,51.9,30.02,WSW,242,0.0,-999.0,59,-99.99,,,0.00,raj,2013-02-03 22:45:00,
2013-02-03 14:50:00,67.1,53.2,30.02,South,188,1.0,-999.0,61,-99.99,,,0.00,raj,2013-02-03 22:50:00,
2013-02-03 14:55:00,67.5,54.0,30.02,SSW,192,0.0,-999.0,62,-99.99,,,0.00,raj,2013-02-03 22:55:00,
2013-02-03 15:01:00,67.8,53.9,30.01,SSW,213,0.0,-999.0,61,-99.99,,,0.00,raj,2013-02-03 23:01:00,
2013-02-03 15:06:00,68.0,54.5,30.01,SW,236,1.0,-999.0,62,-99.99,,,0.00,raj,2013-02-03 23:06:00,
2013-02-03 15:11:00,67.5,54.0,30.01,SW,230,2.0,-999.0,62,-99.99,,,0.00,raj,2013-02-03 23:11:00,
2013-02-03 15:17:00,67.0,54.0,30.01,SSW,213,1.0,-999.0,63,-99.99,,,0.00,raj,2013-02-03 23:17:00,
2013-02-03 15:22:00,66.6,54.5,30.01,West,265,1.0,-999.0,65,-99.99,,,0.00,raj,2013-02-03 23:22:00,
2013-02-03 15:27:00,65.9,55.0,30.01,South,173,1.0,-999.0,68,-99.99,,,0.00,raj,2013-02-03 23:27:00,
2013-02-03 15:32:00,65.3,55.3,30.01,South,173,2.0,-999.0,70,-99.99,,,0.00,raj,2013-02-03 23:32:00,
2013-02-03 15:38:00,64.6,54.2,30.01,North,5,2.0,-999.0,69,-99.99,,,0.00,raj,2013-02-03 23:38:00,
2013-02-03 15:43:00,64.4,54.4,30.01,SSE,158,0.0,-999.0,70,-99.99,,,0.00,raj,2013-02-03 23:43:00,
2013-02-03 15:48:00,65.0,55.0,30.01,SSW,198,4.0,-999.0,70,-99.99,,,0.00,raj,2013-02-03 23:48:00,
2013-02-03 15:54:00,64.9,55.3,30.01,South,178,2.0,-999.0,71,-99.99,,,0.00,raj,2013-02-03 23:54:00,
2013-02-03 15:59:00,64.7,55.8,30.01,SE,137,1.0,-999.0,73,-99.99,,,0.00,raj,2013-02-03 23:59:00,
2013-02-03 16:04:00,64.8,55.6,30.01,SSE,148,0.0,-999.0,72,-99.99,,,0.00,raj,2013-02-04 00:04:00,
2013-02-03 16:09:00,64.5,55.7,30.00,SSE,148,0.0,-999.0,73,-99.99,,,0.00,raj,2013-02-04 00:09:00,
2013-02-03 16:15:00,64.0,55.6,30.01,South,188,0.0,-999.0,74,-99.99,,,0.00,raj,2013-02-04 00:15:00,
2013-02-03 16:20:00,63.6,55.2,30.00,South,180,0.0,-999.0,74,-99.99,,,0.00,raj,2013-02-04 00:20:00,
2013-02-03 16:25:00,63.3,54.9,30.00,SW,229,2.0,-999.0,74,-99.99,,,0.00,raj,2013-02-04 00:25:00,
2013-02-03 16:31:00,63.1,55.1,30.00,SSW,209,0.0,-999.0,75,-99.99,,,0.00,raj,2013-02-04 00:31:00,
2013-02-03 16:36:00,62.8,54.8,30.00,South,188,0.0,-999.0,75,-99.99,,,0.00,raj,2013-02-04 00:36:00,
2013-02-03 16:41:00,63.0,55.0,30.00,South,188,1.0,-999.0,75,-99.99,,,0.00,raj,2013-02-04 00:41:00,
2013-02-03 16:46:00,62.7,55.0,30.00,South,174,0.0,-999.0,76,-99.99,,,0.00,raj,2013-02-04 00:46:00,
2013-02-03 16:52:00,62.7,55.0,30.00,SW,231,2.0,-999.0,76,-99.99,,,0.00,raj,2013-02-04 00:52:00,
2013-02-03 16:57:00,61.9,54.6,30.00,South,180,0.0,-999.0,77,-99.99,,,0.00,raj,2013-02-04 00:57:00,
2013-02-03 17:02:00,61.2,53.9,30.00,South,180,1.0,-999.0,77,-99.99,,,0.00,raj,2013-02-04 01:02:00,
2013-02-03 17:07:00,60.6,53.7,30.00,NNW,327,0.0,-999.0,78,-99.99,,,0.00,raj,2013-02-04 01:07:00,
2013-02-03 17:13:00,60.0,53.5,30.00,NNW,327,0.0,-999.0,79,-99.99,,,0.00,raj,2013-02-04 01:13:00,
2013-02-03 17:18:00,59.6,53.4,30.00,NNW,327,0.0,-999.0,80,-99.99,,,0.00,raj,2013-02-04 01:18:00,
2013-02-03 17:23:00,59.0,52.8,30.00,SW,220,0.0,-999.0,80,-99.99,,,0.00,raj,2013-02-04 01:23:00,
2013-02-03 17:28:00,58.3,52.8,30.00,SW,229,2.0,-999.0,82,-99.99,,,0.00,raj,2013-02-04 01:28:00,
2013-02-03 17:34:00,57.8,52.3,30.01,SW,229,0.0,-999.0,82,-99.99,,,0.00,raj,2013-02-04 01:34:00,
2013-02-03 17:39:00,57.2,52.7,30.00,SW,229,0.0,-999.0,85,-99.99,,,0.00,raj,2013-02-04 01:39:00,
2013-02-03 17:44:00,56.8,52.3,30.00,SSE,165,1.0,-999.0,85,-99.99,,,0.00,raj,2013-02-04 01:44:00,
2013-02-03 17:49:00,56.6,51.8,30.01,SSE,165,0.0,-999.0,84,-99.99,,,0.00,raj,2013-02-04 01:49:00,
2013-02-03 17:55:00,56.3,51.5,30.01,SSE,165,0.0,-999.0,84,-99.99,,,0.00,raj,2013-02-04 01:55:00,
2013-02-03 18:00:00,55.9,51.1,30.01,SSE,165,1.0,-999.0,84,-99.99,,,0.00,raj,2013-02-04 02:00:00,
2013-02-03 18:05:00,55.6,51.2,30.01,SSE,165,0.0,-999.0,85,-99.99,,,0.00,raj,2013-02-04 02:05:00,
2013-02-03 18:11:00,55.4,51.0,30.01,SSE,165,0.0,-999.0,85,-99.99,,,0.00,raj,2013-02-04 02:11:00,
2013-02-03 18:16:00,55.1,51.0,30.01,SSE,165,0.0,-999.0,86,-99.99,,,0.00,raj,2013-02-04 02:16:00,
2013-02-03 18:21:00,54.8,50.7,30.01,SSE,165,0.0,-999.0,86,-99.99,,,0.00,raj,2013-02-04 02:21:00,
2013-02-03 18:27:00,54.6,50.8,30.01,SSE,165,0.0,-999.0,87,-99.99,,,0.00,raj,2013-02-04 02:27:00,
2013-02-03 18:32:00,54.6,50.5,30.01,SSE,165,0.0,-999.0,86,-99.99,,,0.00,raj,2013-02-04 02:32:00,
2013-02-03 18:37:00,55.7,51.6,30.01,NNE,19,4.0,-999.0,86,-99.99,,,0.00,raj,2013-02-04 02:37:00,
2013-02-03 18:43:00,58.1,52.3,30.01,NW,319,0.0,-999.0,81,-99.99,,,0.00,raj,2013-02-04 02:43:00,
2013-02-03 18:48:00,58.8,52.0,30.02,SSE,158,0.0,-999.0,78,-99.99,,,0.00,raj,2013-02-04 02:48:00,
2013-02-03 18:53:00,58.6,52.1,30.01,SSE,158,0.0,-999.0,79,-99.99,,,0.00,raj,2013-02-04 02:53:00,
2013-02-03 18:58:00,58.0,51.5,30.01,SSE,158,1.0,-999.0,79,-99.99,,,0.00,raj,2013-02-04 02:58:00,
2013-02-03 19:04:00,57.4,51.3,30.01,North,355,2.0,-999.0,80,-99.99,,,0.00,raj,2013-02-04 03:04:00,
2013-02-03 19:09:00,57.0,51.2,30.01,North,360,0.0,-999.0,81,-99.99,,,0.00,raj,2013-02-04 03:09:00,
2013-02-03 19:14:00,57.2,51.4,30.01,ESE,106,0.0,-999.0,81,-99.99,,,0.00,raj,2013-02-04 03:14:00,
2013-02-03 19:19:00,57.5,51.4,30.01,SSW,202,0.0,-999.0,80,-99.99,,,0.00,raj,2013-02-04 03:19:00,
2013-02-03 19:25:00,57.7,51.2,30.02,South,171,3.0,-999.0,79,-99.99,,,0.00,raj,2013-02-04 03:25:00,
2013-02-03 19:30:00,57.5,51.0,30.02,SSE,164,0.0,-999.0,79,-99.99,,,0.00,raj,2013-02-04 03:30:00,
2013-02-03 19:35:00,57.3,50.8,30.02,SSE,162,0.0,-999.0,79,-99.99,,,0.00,raj,2013-02-04 03:35:00,
2013-02-03 19:40:00,57.4,50.6,30.01,NNE,22,4.0,-999.0,78,-99.99,,,0.00,raj,2013-02-04 03:40:00,
2013-02-03 19:46:00,57.7,50.9,30.01,South,179,1.0,-999.0,78,-99.99,,,0.00,raj,2013-02-04 03:46:00,
2013-02-03 19:51:00,57.2,50.8,30.02,South,188,0.0,-999.0,79,-99.99,,,0.00,raj,2013-02-04 03:51:00,
2013-02-03 19:56:00,56.6,50.2,30.02,South,188,0.0,-999.0,79,-99.99,,,0.00,raj,2013-02-04 03:56:00,
2013-02-03 20:02:00,56.0,50.3,30.02,South,188,0.0,-999.0,81,-99.99,,,0.00,raj,2013-02-04 04:02:00,
2013-02-03 20:07:00,55.4,50.0,30.02,South,188,0.0,-999.0,82,-99.99,,,0.00,raj,2013-02-04 04:07:00,
2013-02-03 20:12:00,54.9,49.5,30.02,South,188,0.0,-999.0,82,-99.99,,,0.00,raj,2013-02-04 04:12:00,
2013-02-03 20:17:00,54.4,49.3,30.03,South,188,0.0,-999.0,83,-99.99,,,0.00,raj,2013-02-04 04:17:00,
2013-02-03 20:23:00,53.9,49.5,30.03,South,188,0.0,-999.0,85,-99.99,,,0.00,raj,2013-02-04 04:23:00,
2013-02-03 20:28:00,53.7,49.3,30.03,South,188,0.0,-999.0,85,-99.99,,,0.00,raj,2013-02-04 04:28:00,
2013-02-03 20:33:00,53.4,49.0,30.03,South,189,0.0,-999.0,85,-99.99,,,0.00,raj,2013-02-04 04:33:00,
2013-02-03 20:38:00,53.1,49.3,30.03,South,189,0.0,-999.0,87,-99.99,,,0.00,raj,2013-02-04 04:38:00,
2013-02-03 20:44:00,53.0,49.2,30.03,SW,225,0.0,-999.0,87,-99.99,,,0.00,raj,2013-02-04 04:44:00,
2013-02-03 20:49:00,52.7,48.9,30.03,SW,225,1.0,-999.0,87,-99.99,,,0.00,raj,2013-02-04 04:49:00,
2013-02-03 20:54:00,52.4,48.7,30.03,SW,226,0.0,-999.0,87,-99.99,,,0.00,raj,2013-02-04 04:54:00,
2013-02-03 21:02:00,51.9,48.5,30.03,SW,226,0.0,-999.0,88,-99.99,,,0.00,raj,2013-02-04 05:02:00,
2013-02-03 21:04:00,51.8,48.1,30.03,SW,226,0.0,-999.0,87,-99.99,,,0.00,raj,2013-02-04 05:04:00,
2013-02-03 21:05:00,51.7,48.0,30.03,SW,226,0.0,-999.0,87,-99.99,,,0.00,raj,2013-02-04 05:05:00,
2013-02-03 21:10:00,51.3,47.9,30.03,WNW,294,2.0,-999.0,88,-99.99,,,0.00,raj,2013-02-04 05:10:00,
2013-02-03 21:15:00,51.4,48.6,30.03,North,5,0.0,-999.0,90,-99.99,,,0.00,raj,2013-02-04 05:15:00,
2013-02-03 21:21:00,51.3,48.2,30.03,North,5,0.0,-999.0,89,-99.99,,,0.00,raj,2013-02-04 05:21:00,
2013-02-03 21:26:00,51.1,48.6,30.03,North,5,0.0,-999.0,91,-99.99,,,0.00,raj,2013-02-04 05:26:00,
2013-02-03 21:31:00,51.1,48.6,30.03,North,5,0.0,-999.0,91,-99.99,,,0.00,raj,2013-02-04 05:31:00,
2013-02-03 21:36:00,51.2,49.0,30.03,North,5,0.0,-999.0,92,-99.99,,,0.00,raj,2013-02-04 05:36:00,
2013-02-03 21:42:00,51.3,48.8,30.03,North,5,0.0,-999.0,91,-99.99,,,0.00,raj,2013-02-04 05:42:00,
2013-02-03 21:47:00,51.4,48.9,30.03,North,5,0.0,-999.0,91,-99.99,,,0.00,raj,2013-02-04 05:47:00,
2013-02-03 21:52:00,51.5,49.2,30.02,North,5,0.0,-999.0,92,-99.99,,,0.00,raj,2013-02-04 05:52:00,
2013-02-03 21:57:00,51.5,49.0,30.02,North,5,0.0,-999.0,91,-99.99,,,0.00,raj,2013-02-04 05:57:00,
2013-02-03 22:03:00,51.4,48.9,30.03,North,5,0.0,-999.0,91,-99.99,,,0.00,raj,2013-02-04 06:03:00,
2013-02-03 22:08:00,51.1,48.6,30.03,NNW,342,1.0,-999.0,91,-99.99,,,0.00,raj,2013-02-04 06:08:00,
2013-02-03 22:13:00,50.7,48.2,30.03,NNW,342,0.0,-999.0,91,-99.99,,,0.00,raj,2013-02-04 06:13:00,
2013-02-03 22:18:00,50.4,47.9,30.03,NNW,333,0.0,-999.0,91,-99.99,,,0.00,raj,2013-02-04 06:18:00,
2013-02-03 22:24:00,50.4,48.2,30.04,NNW,333,0.0,-999.0,92,-99.99,,,0.00,raj,2013-02-04 06:24:00,
2013-02-03 22:29:00,50.2,48.0,30.04,NNW,333,0.0,-999.0,92,-99.99,,,0.00,raj,2013-02-04 06:29:00,
2013-02-03 22:34:00,50.2,48.5,30.04,North,9,2.0,-999.0,94,-99.99,,,0.00,raj,2013-02-04 06:34:00,
2013-02-03 22:39:00,50.1,47.9,30.04,North,9,0.0,-999.0,92,-99.99,,,0.00,raj,2013-02-04 06:39:00,
2013-02-03 22:45:00,50.0,48.1,30.03,North,9,0.0,-999.0,93,-99.99,,,0.00,raj,2013-02-04 06:45:00,
2013-02-03 22:50:00,50.1,48.7,30.04,North,9,1.0,-999.0,95,-99.99,,,0.00,raj,2013-02-04 06:50:00,
2013-02-03 22:55:00,50.9,50.1,30.04,NNE,19,1.0,-999.0,97,-99.99,,,0.00,raj,2013-02-04 06:55:00,
2013-02-03 23:00:00,51.6,50.8,30.04,NE,44,1.0,-999.0,97,-99.99,,,0.00,raj,2013-02-04 07:00:00,
2013-02-03 23:06:00,52.0,51.2,30.04,NE,44,1.0,-999.0,97,-99.99,,,0.00,raj,2013-02-04 07:06:00,
2013-02-03 23:11:00,52.1,51.0,30.04,NE,44,0.0,-999.0,96,-99.99,,,0.00,raj,2013-02-04 07:11:00,
2013-02-03 23:16:00,52.0,50.6,30.04,NE,44,0.0,-999.0,95,-99.99,,,0.00,raj,2013-02-04 07:16:00,
2013-02-03 23:22:00,51.9,50.8,30.03,NE,44,1.0,-999.0,96,-99.99,,,0.00,raj,2013-02-04 07:22:00,
2013-02-03 23:30:00,52.0,50.9,30.03,NNE,18,3.0,-999.0,96,-99.99,,,0.00,raj,2013-02-04 07:30:00,
2013-02-03 23:36:00,52.1,51.0,30.03,ENE,57,0.0,-999.0,96,-99.99,,,0.00,raj,2013-02-04 07:36:00,
2013-02-03 23:46:00,52.3,51.2,30.04,ENE,71,0.0,-999.0,96,-99.99,,,0.00,raj,2013-02-04 07:46:00,
2013-02-03 23:54:00,52.4,51.3,30.04,NNE,27,0.0,-999.0,96,-99.99,,,0.00,raj,2013-02-04 07:54:00,